Terminal Aerodrome Forecast
Issued by NWS

Home | Current Version | Previous Version | Text Only | Print | Product List | Glossary On
Versions: 1 2 3 4 5 6 7 8 9 10 11 12 13 14 15 16 17
021
FTUS43 KABR 221120
TAFMBG
TAF
KMBG 221120Z 2212/2312 VRB06KT P6SM SKC
     FM221700 21012KT P6SM FEW200
     FM230000 VRB06KT P6SM BKN110
     FM230500 29012KT P6SM SCT200=

USA.gov is the U.S. government's official web portal to all federal, state and local government web resources and services.